sensor_id;sensor_type;location;lat;lon;timestamp;pressure;altitude;pressure_sealevel;temperature
11321;BMP180;5715;48.234;14.320;2023-01-15T00:02:26;97945.00;;;13.30
11321;BMP180;5715;48.234;14.320;2023-01-15T00:05:14;97954.00;;;13.20
11321;BMP180;5715;48.234;14.320;2023-01-15T00:08:01;97951.00;;;13.30
11321;BMP180;5715;48.234;14.320;2023-01-15T00:10:49;97955.00;;;13.30
11321;BMP180;5715;48.234;14.320;2023-01-15T00:13:37;97951.00;;;13.30
11321;BMP180;5715;48.234;14.320;2023-01-15T00:16:26;97942.00;;;13.60
11321;BMP180;5715;48.234;14.320;2023-01-15T00:19:14;97952.00;;;13.20
11321;BMP180;5715;48.234;14.320;2023-01-15T00:22:02;97936.00;;;13.30
11321;BMP180;5715;48.234;14.320;2023-01-15T00:24:50;97935.00;;;13.20
11321;BMP180;5715;48.234;14.320;2023-01-15T00:27:56;97943.00;;;13.20
11321;BMP180;5715;48.234;14.320;2023-01-15T00:30:43;97939.00;;;13.10
11321;BMP180;5715;48.234;14.320;2023-01-15T00:33:31;97926.00;;;13.00
11321;BMP180;5715;48.234;14.320;2023-01-15T00:36:19;97933.00;;;13.00
11321;BMP180;5715;48.234;14.320;2023-01-15T00:39:06;97926.00;;;13.10
11321;BMP180;5715;48.234;14.320;2023-01-15T00:41:55;97922.00;;;12.80
11321;BMP180;5715;48.234;14.320;2023-01-15T00:44:42;97915.00;;;12.80
11321;BMP180;5715;48.234;14.320;2023-01-15T00:47:30;97917.00;;;12.70
11321;BMP180;5715;48.234;14.320;2023-01-15T00:50:18;97913.00;;;12.60
11321;BMP180;5715;48.234;14.320;2023-01-15T00:53:05;97921.00;;;12.60
11321;BMP180;5715;48.234;14.320;2023-01-15T00:55:53;97907.00;;;12.50
11321;BMP180;5715;48.234;14.320;2023-01-15T00:58:41;97915.00;;;12.60
11321;BMP180;5715;48.234;14.320;2023-01-15T01:01:28;97904.00;;;12.60
11321;BMP180;5715;48.234;14.320;2023-01-15T01:04:16;97893.00;;;12.50
11321;BMP180;5715;48.234;14.320;2023-01-15T01:07:04;97902.00;;;12.50
11321;BMP180;5715;48.234;14.320;2023-01-15T01:09:52;97912.00;;;12.50
11321;BMP180;5715;48.234;14.320;2023-01-15T01:12:40;97911.00;;;12.50
11321;BMP180;5715;48.234;14.320;2023-01-15T01:15:27;97894.00;;;12.60
11321;BMP180;5715;48.234;14.320;2023-01-15T01:18:15;97885.00;;;12.70
11321;BMP180;5715;48.234;14.320;2023-01-15T01:21:04;97886.00;;;12.90
11321;BMP180;5715;48.234;14.320;2023-01-15T01:23:52;97879.00;;;13.00
11321;BMP180;5715;48.234;14.320;2023-01-15T01:26:40;97874.00;;;13.20
11321;BMP180;5715;48.234;14.320;2023-01-15T01:29:30;97876.00;;;13.30
11321;BMP180;5715;48.234;14.320;2023-01-15T01:32:17;97874.00;;;13.10
11321;BMP180;5715;48.234;14.320;2023-01-15T01:35:05;97882.00;;;13.20
11321;BMP180;5715;48.234;14.320;2023-01-15T01:37:53;97888.00;;;13.20
11321;BMP180;5715;48.234;14.320;2023-01-15T01:40:41;97872.00;;;13.40
11321;BMP180;5715;48.234;14.320;2023-01-15T01:43:30;97863.00;;;13.40
11321;BMP180;5715;48.234;14.320;2023-01-15T01:46:17;97859.00;;;13.30
11321;BMP180;5715;48.234;14.320;2023-01-15T01:49:10;97860.00;;;12.90
11321;BMP180;5715;48.234;14.320;2023-01-15T01:52:12;97840.00;;;13.20
11321;BMP180;5715;48.234;14.320;2023-01-15T01:55:03;97840.00;;;13.10
11321;BMP180;5715;48.234;14.320;2023-01-15T01:57:55;97829.00;;;13.00
11321;BMP180;5715;48.234;14.320;2023-01-15T02:00:49;97829.00;;;12.80
11321;BMP180;5715;48.234;14.320;2023-01-15T02:03:38;97818.00;;;12.60
11321;BMP180;5715;48.234;14.320;2023-01-15T02:06:28;97822.00;;;12.80
11321;BMP180;5715;48.234;14.320;2023-01-15T02:09:15;97821.00;;;12.70
11321;BMP180;5715;48.234;14.320;2023-01-15T02:12:16;97817.00;;;12.70
11321;BMP180;5715;48.234;14.320;2023-01-15T02:15:17;97812.00;;;13.10
11321;BMP180;5715;48.234;14.320;2023-01-15T02:18:28;97810.00;;;13.10
11321;BMP180;5715;48.234;14.320;2023-01-15T02:21:40;97816.00;;;12.80
11321;BMP180;5715;48.234;14.320;2023-01-15T02:27:46;97824.00;;;12.40
11321;BMP180;5715;48.234;14.320;2023-01-15T02:30:44;97807.00;;;12.70
11321;BMP180;5715;48.234;14.320;2023-01-15T02:37:13;97805.00;;;12.60
11321;BMP180;5715;48.234;14.320;2023-01-15T02:40:05;97801.00;;;12.50
11321;BMP180;5715;48.234;14.320;2023-01-15T02:42:56;97800.00;;;12.30
11321;BMP180;5715;48.234;14.320;2023-01-15T02:45:49;97808.00;;;12.30
11321;BMP180;5715;48.234;14.320;2023-01-15T02:48:41;97802.00;;;12.30
11321;BMP180;5715;48.234;14.320;2023-01-15T02:52:09;97808.00;;;12.20
11321;BMP180;5715;48.234;14.320;2023-01-15T02:55:18;97796.00;;;12.30
11321;BMP180;5715;48.234;14.320;2023-01-15T02:58:12;97793.00;;;12.20
11321;BMP180;5715;48.234;14.320;2023-01-15T03:01:17;97788.00;;;12.20
11321;BMP180;5715;48.234;14.320;2023-01-15T03:07:50;97765.00;;;12.30
11321;BMP180;5715;48.234;14.320;2023-01-15T03:16:58;97748.00;;;12.40
11321;BMP180;5715;48.234;14.320;2023-01-15T03:19:55;97752.00;;;12.40
11321;BMP180;5715;48.234;14.320;2023-01-15T03:22:48;97749.00;;;12.50
11321;BMP180;5715;48.234;14.320;2023-01-15T03:25:46;97742.00;;;12.70
11321;BMP180;5715;48.234;14.320;2023-01-15T03:28:37;97746.00;;;12.70
11321;BMP180;5715;48.234;14.320;2023-01-15T03:31:27;97725.00;;;12.90
11321;BMP180;5715;48.234;14.320;2023-01-15T03:34:15;97717.00;;;13.00
11321;BMP180;5715;48.234;14.320;2023-01-15T03:37:03;97725.00;;;12.90
11321;BMP180;5715;48.234;14.320;2023-01-15T03:39:51;97731.00;;;12.90
11321;BMP180;5715;48.234;14.320;2023-01-15T03:42:59;97723.00;;;12.30
11321;BMP180;5715;48.234;14.320;2023-01-15T03:46:18;97725.00;;;12.70
11321;BMP180;5715;48.234;14.320;2023-01-15T03:49:35;97739.00;;;12.90
11321;BMP180;5715;48.234;14.320;2023-01-15T03:56:01;97718.00;;;12.80
11321;BMP180;5715;48.234;14.320;2023-01-15T03:59:34;97726.00;;;12.90
11321;BMP180;5715;48.234;14.320;2023-01-15T04:02:24;97737.00;;;12.80
11321;BMP180;5715;48.234;14.320;2023-01-15T04:05:15;97753.00;;;12.60
11321;BMP180;5715;48.234;14.320;2023-01-15T04:08:03;97751.00;;;12.70
11321;BMP180;5715;48.234;14.320;2023-01-15T04:11:01;97752.00;;;12.80
11321;BMP180;5715;48.234;14.320;2023-01-15T04:13:49;97757.00;;;12.90
11321;BMP180;5715;48.234;14.320;2023-01-15T04:16:37;97783.00;;;12.70
11321;BMP180;5715;48.234;14.320;2023-01-15T04:19:25;97782.00;;;12.80
11321;BMP180;5715;48.234;14.320;2023-01-15T04:22:12;97778.00;;;12.70
11321;BMP180;5715;48.234;14.320;2023-01-15T04:25:04;97781.00;;;12.80
11321;BMP180;5715;48.234;14.320;2023-01-15T04:27:55;97817.00;;;12.40
11321;BMP180;5715;48.234;14.320;2023-01-15T04:30:43;97816.00;;;12.50
11321;BMP180;5715;48.234;14.320;2023-01-15T04:33:30;97788.00;;;12.70
11321;BMP180;5715;48.234;14.320;2023-01-15T04:36:18;97775.00;;;13.00
11321;BMP180;5715;48.234;14.320;2023-01-15T04:39:06;97766.00;;;13.10
11321;BMP180;5715;48.234;14.320;2023-01-15T04:41:53;97736.00;;;13.20
11321;BMP180;5715;48.234;14.320;2023-01-15T04:45:00;97729.00;;;13.20
11321;BMP180;5715;48.234;14.320;2023-01-15T04:47:47;97694.00;;;13.20
11321;BMP180;5715;48.234;14.320;2023-01-15T04:50:35;97670.00;;;13.30
11321;BMP180;5715;48.234;14.320;2023-01-15T04:53:25;97675.00;;;13.30
11321;BMP180;5715;48.234;14.320;2023-01-15T04:56:13;97677.00;;;13.40
11321;BMP180;5715;48.234;14.320;2023-01-15T04:59:01;97668.00;;;13.30
11321;BMP180;5715;48.234;14.320;2023-01-15T05:01:50;97662.00;;;13.50
11321;BMP180;5715;48.234;14.320;2023-01-15T05:04:51;97632.00;;;13.70
11321;BMP180;5715;48.234;14.320;2023-01-15T05:07:39;97630.00;;;13.50
11321;BMP180;5715;48.234;14.320;2023-01-15T05:10:26;97637.00;;;13.50
11321;BMP180;5715;48.234;14.320;2023-01-15T05:13:14;97634.00;;;13.60
11321;BMP180;5715;48.234;14.320;2023-01-15T05:16:14;97628.00;;;13.30
11321;BMP180;5715;48.234;14.320;2023-01-15T05:19:04;97626.00;;;13.60
11321;BMP180;5715;48.234;14.320;2023-01-15T05:21:53;97633.00;;;13.50
11321;BMP180;5715;48.234;14.320;2023-01-15T05:24:41;97608.00;;;13.60
11321;BMP180;5715;48.234;14.320;2023-01-15T05:27:30;97612.00;;;13.50
11321;BMP180;5715;48.234;14.320;2023-01-15T05:30:18;97612.00;;;13.50
11321;BMP180;5715;48.234;14.320;2023-01-15T05:33:05;97587.00;;;13.60
11321;BMP180;5715;48.234;14.320;2023-01-15T05:35:53;97587.00;;;13.80
11321;BMP180;5715;48.234;14.320;2023-01-15T05:38:41;97591.00;;;13.80
11321;BMP180;5715;48.234;14.320;2023-01-15T05:41:29;97597.00;;;13.90
11321;BMP180;5715;48.234;14.320;2023-01-15T05:44:35;97597.00;;;13.70
11321;BMP180;5715;48.234;14.320;2023-01-15T05:47:23;97587.00;;;13.10
11321;BMP180;5715;48.234;14.320;2023-01-15T05:50:10;97584.00;;;13.30
11321;BMP180;5715;48.234;14.320;2023-01-15T05:52:58;97583.00;;;13.50
11321;BMP180;5715;48.234;14.320;2023-01-15T05:55:45;97571.00;;;13.60
11321;BMP180;5715;48.234;14.320;2023-01-15T05:58:33;97553.00;;;13.40
11321;BMP180;5715;48.234;14.320;2023-01-15T06:01:22;97560.00;;;13.40
11321;BMP180;5715;48.234;14.320;2023-01-15T06:04:11;97543.00;;;13.60
11321;BMP180;5715;48.234;14.320;2023-01-15T06:07:00;97545.00;;;13.40
11321;BMP180;5715;48.234;14.320;2023-01-15T06:09:48;97544.00;;;13.30
11321;BMP180;5715;48.234;14.320;2023-01-15T06:12:35;97544.00;;;13.30
11321;BMP180;5715;48.234;14.320;2023-01-15T06:15:23;97537.00;;;13.10
11321;BMP180;5715;48.234;14.320;2023-01-15T06:18:11;97529.00;;;13.40
11321;BMP180;5715;48.234;14.320;2023-01-15T06:21:04;97524.00;;;12.80
11321;BMP180;5715;48.234;14.320;2023-01-15T06:23:53;97519.00;;;13.10
11321;BMP180;5715;48.234;14.320;2023-01-15T06:26:40;97525.00;;;12.70
11321;BMP180;5715;48.234;14.320;2023-01-15T06:29:28;97519.00;;;12.90
11321;BMP180;5715;48.234;14.320;2023-01-15T06:32:16;97523.00;;;12.60
11321;BMP180;5715;48.234;14.320;2023-01-15T06:35:04;97527.00;;;12.60
11321;BMP180;5715;48.234;14.320;2023-01-15T06:37:52;97532.00;;;12.40
11321;BMP180;5715;48.234;14.320;2023-01-15T06:40:39;97503.00;;;12.30
11321;BMP180;5715;48.234;14.320;2023-01-15T06:43:27;97492.00;;;13.10
11321;BMP180;5715;48.234;14.320;2023-01-15T06:46:34;97519.00;;;12.80
11321;BMP180;5715;48.234;14.320;2023-01-15T06:49:40;97513.00;;;12.60
11321;BMP180;5715;48.234;14.320;2023-01-15T06:52:29;97490.00;;;13.00
11321;BMP180;5715;48.234;14.320;2023-01-15T06:55:17;97494.00;;;13.30
11321;BMP180;5715;48.234;14.320;2023-01-15T06:58:05;97505.00;;;13.30
11321;BMP180;5715;48.234;14.320;2023-01-15T07:00:52;97492.00;;;13.30
11321;BMP180;5715;48.234;14.320;2023-01-15T07:03:42;97488.00;;;12.80
11321;BMP180;5715;48.234;14.320;2023-01-15T07:06:31;97479.00;;;12.80
11321;BMP180;5715;48.234;14.320;2023-01-15T07:09:18;97459.00;;;13.30
11321;BMP180;5715;48.234;14.320;2023-01-15T07:12:06;97475.00;;;13.40
11321;BMP180;5715;48.234;14.320;2023-01-15T07:14:53;97505.00;;;13.60
11321;BMP180;5715;48.234;14.320;2023-01-15T07:17:41;97496.00;;;12.70
11321;BMP180;5715;48.234;14.320;2023-01-15T07:20:29;97474.00;;;13.30
11321;BMP180;5715;48.234;14.320;2023-01-15T07:23:16;97486.00;;;13.30
11321;BMP180;5715;48.234;14.320;2023-01-15T07:26:04;97482.00;;;12.30
11321;BMP180;5715;48.234;14.320;2023-01-15T07:28:52;97480.00;;;12.50
11321;BMP180;5715;48.234;14.320;2023-01-15T07:31:43;97501.00;;;13.20
11321;BMP180;5715;48.234;14.320;2023-01-15T07:34:30;97478.00;;;13.40
11321;BMP180;5715;48.234;14.320;2023-01-15T07:37:18;97479.00;;;13.50
11321;BMP180;5715;48.234;14.320;2023-01-15T07:40:06;97521.00;;;13.70
11321;BMP180;5715;48.234;14.320;2023-01-15T07:42:55;97503.00;;;13.40
11321;BMP180;5715;48.234;14.320;2023-01-15T07:46:01;97539.00;;;13.60
11321;BMP180;5715;48.234;14.320;2023-01-15T07:49:10;97523.00;;;13.90
11321;BMP180;5715;48.234;14.320;2023-01-15T07:52:18;97511.00;;;13.90
11321;BMP180;5715;48.234;14.320;2023-01-15T07:55:07;97537.00;;;13.90
11321;BMP180;5715;48.234;14.320;2023-01-15T07:57:55;97538.00;;;13.90
11321;BMP180;5715;48.234;14.320;2023-01-15T08:00:43;97527.00;;;14.10
11321;BMP180;5715;48.234;14.320;2023-01-15T08:03:31;97544.00;;;14.10
11321;BMP180;5715;48.234;14.320;2023-01-15T08:06:18;97552.00;;;14.20
11321;BMP180;5715;48.234;14.320;2023-01-15T08:09:06;97536.00;;;14.20
11321;BMP180;5715;48.234;14.320;2023-01-15T08:11:53;97560.00;;;14.20
11321;BMP180;5715;48.234;14.320;2023-01-15T08:15:00;97559.00;;;14.40
11321;BMP180;5715;48.234;14.320;2023-01-15T08:18:00;97549.00;;;14.50
11321;BMP180;5715;48.234;14.320;2023-01-15T08:20:48;97572.00;;;14.60
11321;BMP180;5715;48.234;14.320;2023-01-15T08:23:35;97557.00;;;14.60
11321;BMP180;5715;48.234;14.320;2023-01-15T08:26:23;97530.00;;;14.60
11321;BMP180;5715;48.234;14.320;2023-01-15T08:29:11;97513.00;;;14.80
11321;BMP180;5715;48.234;14.320;2023-01-15T08:31:58;97503.00;;;14.80
11321;BMP180;5715;48.234;14.320;2023-01-15T08:34:49;97509.00;;;14.90
11321;BMP180;5715;48.234;14.320;2023-01-15T08:37:36;97502.00;;;15.00
11321;BMP180;5715;48.234;14.320;2023-01-15T08:40:24;97492.00;;;15.20
11321;BMP180;5715;48.234;14.320;2023-01-15T08:43:12;97495.00;;;15.20
11321;BMP180;5715;48.234;14.320;2023-01-15T08:46:03;97500.00;;;15.20
11321;BMP180;5715;48.234;14.320;2023-01-15T08:48:51;97489.00;;;15.40
11321;BMP180;5715;48.234;14.320;2023-01-15T08:51:39;97495.00;;;15.60
11321;BMP180;5715;48.234;14.320;2023-01-15T08:54:27;97481.00;;;15.50
11321;BMP180;5715;48.234;14.320;2023-01-15T08:57:14;97493.00;;;15.30
11321;BMP180;5715;48.234;14.320;2023-01-15T09:00:03;97497.00;;;15.50
11321;BMP180;5715;48.234;14.320;2023-01-15T09:02:51;97495.00;;;15.30
11321;BMP180;5715;48.234;14.320;2023-01-15T09:05:39;97486.00;;;15.40
11321;BMP180;5715;48.234;14.320;2023-01-15T09:08:28;97488.00;;;15.50
11321;BMP180;5715;48.234;14.320;2023-01-15T09:11:16;97494.00;;;15.70
11321;BMP180;5715;48.234;14.320;2023-01-15T09:14:03;97484.00;;;15.90
11321;BMP180;5715;48.234;14.320;2023-01-15T09:16:51;97496.00;;;15.80
11321;BMP180;5715;48.234;14.320;2023-01-15T09:19:39;97497.00;;;15.70
11321;BMP180;5715;48.234;14.320;2023-01-15T09:22:26;97496.00;;;15.70
11321;BMP180;5715;48.234;14.320;2023-01-15T09:25:17;97497.00;;;15.70
11321;BMP180;5715;48.234;14.320;2023-01-15T09:28:06;97488.00;;;15.50
11321;BMP180;5715;48.234;14.320;2023-01-15T09:30:54;97477.00;;;15.50
11321;BMP180;5715;48.234;14.320;2023-01-15T09:33:42;97484.00;;;15.50
11321;BMP180;5715;48.234;14.320;2023-01-15T09:36:33;97496.00;;;15.20
11321;BMP180;5715;48.234;14.320;2023-01-15T09:39:21;97477.00;;;15.50
11321;BMP180;5715;48.234;14.320;2023-01-15T09:42:22;97481.00;;;15.70
11321;BMP180;5715;48.234;14.320;2023-01-15T09:45:38;97486.00;;;15.60
11321;BMP180;5715;48.234;14.320;2023-01-15T09:55:31;97486.00;;;15.80
11321;BMP180;5715;48.234;14.320;2023-01-15T09:58:34;97480.00;;;15.90
11321;BMP180;5715;48.234;14.320;2023-01-15T10:01:31;97490.00;;;15.90
11321;BMP180;5715;48.234;14.320;2023-01-15T10:04:42;97477.00;;;15.90
11321;BMP180;5715;48.234;14.320;2023-01-15T10:10:58;97434.00;;;16.10
11321;BMP180;5715;48.234;14.320;2023-01-15T10:14:23;97466.00;;;15.90
11321;BMP180;5715;48.234;14.320;2023-01-15T10:17:30;97457.00;;;16.00
11321;BMP180;5715;48.234;14.320;2023-01-15T10:24:06;97444.00;;;15.50
11321;BMP180;5715;48.234;14.320;2023-01-15T10:26:57;97446.00;;;15.70
11321;BMP180;5715;48.234;14.320;2023-01-15T10:32:54;97442.00;;;16.00
11321;BMP180;5715;48.234;14.320;2023-01-15T10:36:12;97432.00;;;15.70
11321;BMP180;5715;48.234;14.320;2023-01-15T10:39:35;97417.00;;;16.00
11321;BMP180;5715;48.234;14.320;2023-01-15T10:45:46;97406.00;;;16.20
11321;BMP180;5715;48.234;14.320;2023-01-15T10:48:48;97395.00;;;16.10
11321;BMP180;5715;48.234;14.320;2023-01-15T10:51:45;97401.00;;;16.10
11321;BMP180;5715;48.234;14.320;2023-01-15T10:54:47;97404.00;;;16.30
11321;BMP180;5715;48.234;14.320;2023-01-15T10:57:50;97390.00;;;16.30
11321;BMP180;5715;48.234;14.320;2023-01-15T11:01:05;97373.00;;;16.40
11321;BMP180;5715;48.234;14.320;2023-01-15T11:03:53;97373.00;;;16.20
11321;BMP180;5715;48.234;14.320;2023-01-15T11:06:41;97369.00;;;15.80
11321;BMP180;5715;48.234;14.320;2023-01-15T11:09:29;97369.00;;;15.80
11321;BMP180;5715;48.234;14.320;2023-01-15T11:12:26;97381.00;;;15.20
11321;BMP180;5715;48.234;14.320;2023-01-15T11:15:33;97379.00;;;14.80
11321;BMP180;5715;48.234;14.320;2023-01-15T11:18:43;97368.00;;;15.10
11321;BMP180;5715;48.234;14.320;2023-01-15T11:21:51;97366.00;;;15.20
11321;BMP180;5715;48.234;14.320;2023-01-15T11:24:51;97359.00;;;15.60
11321;BMP180;5715;48.234;14.320;2023-01-15T11:27:40;97362.00;;;15.00
11321;BMP180;5715;48.234;14.320;2023-01-15T11:30:36;97366.00;;;15.20
11321;BMP180;5715;48.234;14.320;2023-01-15T11:33:28;97351.00;;;15.60
11321;BMP180;5715;48.234;14.320;2023-01-15T11:36:24;97333.00;;;15.70
11321;BMP180;5715;48.234;14.320;2023-01-15T11:39:26;97322.00;;;15.60
11321;BMP180;5715;48.234;14.320;2023-01-15T11:42:17;97333.00;;;15.40
11321;BMP180;5715;48.234;14.320;2023-01-15T11:45:26;97321.00;;;15.00
11321;BMP180;5715;48.234;14.320;2023-01-15T11:48:47;97310.00;;;15.40
11321;BMP180;5715;48.234;14.320;2023-01-15T11:51:57;97333.00;;;15.40
11321;BMP180;5715;48.234;14.320;2023-01-15T11:54:50;97351.00;;;15.10
11321;BMP180;5715;48.234;14.320;2023-01-15T11:57:38;97366.00;;;15.90
11321;BMP180;5715;48.234;14.320;2023-01-15T12:00:34;97354.00;;;15.50
11321;BMP180;5715;48.234;14.320;2023-01-15T12:03:30;97335.00;;;15.90
11321;BMP180;5715;48.234;14.320;2023-01-15T12:06:21;97335.00;;;15.90
11321;BMP180;5715;48.234;14.320;2023-01-15T12:26:32;97362.00;;;16.10
11321;BMP180;5715;48.234;14.320;2023-01-15T12:29:27;97364.00;;;16.10
11321;BMP180;5715;48.234;14.320;2023-01-15T12:32:22;97368.00;;;15.80
11321;BMP180;5715;48.234;14.320;2023-01-15T12:35:30;97374.00;;;15.80
11321;BMP180;5715;48.234;14.320;2023-01-15T12:41:40;97374.00;;;15.80
11321;BMP180;5715;48.234;14.320;2023-01-15T12:44:54;97398.00;;;16.00
11321;BMP180;5715;48.234;14.320;2023-01-15T12:48:21;97407.00;;;16.00
11321;BMP180;5715;48.234;14.320;2023-01-15T12:51:24;97425.00;;;15.90
11321;BMP180;5715;48.234;14.320;2023-01-15T12:54:20;97432.00;;;15.80
11321;BMP180;5715;48.234;14.320;2023-01-15T12:57:27;97448.00;;;15.50
11321;BMP180;5715;48.234;14.320;2023-01-15T13:00:40;97459.00;;;15.60
11321;BMP180;5715;48.234;14.320;2023-01-15T13:06:33;97481.00;;;15.40
11321;BMP180;5715;48.234;14.320;2023-01-15T13:09:44;97499.00;;;15.30
11321;BMP180;5715;48.234;14.320;2023-01-15T13:12:34;97505.00;;;15.20
11321;BMP180;5715;48.234;14.320;2023-01-15T13:15:29;97530.00;;;15.00
11321;BMP180;5715;48.234;14.320;2023-01-15T13:18:29;97546.00;;;14.60
11321;BMP180;5715;48.234;14.320;2023-01-15T13:21:19;97568.00;;;15.20
11321;BMP180;5715;48.234;14.320;2023-01-15T13:27:24;97600.00;;;15.10
11321;BMP180;5715;48.234;14.320;2023-01-15T13:33:43;97641.00;;;14.90
11321;BMP180;5715;48.234;14.320;2023-01-15T13:36:42;97640.00;;;14.70
11321;BMP180;5715;48.234;14.320;2023-01-15T13:39:40;97666.00;;;14.60
11321;BMP180;5715;48.234;14.320;2023-01-15T13:42:30;97679.00;;;14.50
11321;BMP180;5715;48.234;14.320;2023-01-15T13:45:22;97677.00;;;14.50
11321;BMP180;5715;48.234;14.320;2023-01-15T13:48:15;97676.00;;;14.20
11321;BMP180;5715;48.234;14.320;2023-01-15T13:51:06;97679.00;;;14.40
11321;BMP180;5715;48.234;14.320;2023-01-15T13:54:03;97687.00;;;14.80
11321;BMP180;5715;48.234;14.320;2023-01-15T14:00:35;97708.00;;;14.70
11321;BMP180;5715;48.234;14.320;2023-01-15T14:03:31;97709.00;;;14.60
11321;BMP180;5715;48.234;14.320;2023-01-15T14:06:19;97717.00;;;15.00
11321;BMP180;5715;48.234;14.320;2023-01-15T14:09:33;97723.00;;;15.00
11321;BMP180;5715;48.234;14.320;2023-01-15T14:12:48;97730.00;;;14.90
11321;BMP180;5715;48.234;14.320;2023-01-15T14:15:44;97737.00;;;14.90
11321;BMP180;5715;48.234;14.320;2023-01-15T14:19:17;97745.00;;;14.90
11321;BMP180;5715;48.234;14.320;2023-01-15T14:31:48;97776.00;;;15.10
11321;BMP180;5715;48.234;14.320;2023-01-15T14:34:38;97790.00;;;15.30
11321;BMP180;5715;48.234;14.320;2023-01-15T14:37:44;97785.00;;;14.80
11321;BMP180;5715;48.234;14.320;2023-01-15T14:40:35;97804.00;;;14.80
11321;BMP180;5715;48.234;14.320;2023-01-15T14:43:22;97812.00;;;14.60
11321;BMP180;5715;48.234;14.320;2023-01-15T14:46:31;97819.00;;;14.90
11321;BMP180;5715;48.234;14.320;2023-01-15T14:49:31;97825.00;;;14.70
11321;BMP180;5715;48.234;14.320;2023-01-15T14:52:29;97847.00;;;14.50
11321;BMP180;5715;48.234;14.320;2023-01-15T14:55:19;97844.00;;;14.70
11321;BMP180;5715;48.234;14.320;2023-01-15T15:01:43;97859.00;;;14.50
11321;BMP180;5715;48.234;14.320;2023-01-15T15:04:46;97855.00;;;14.80
11321;BMP180;5715;48.234;14.320;2023-01-15T15:07:44;97853.00;;;14.80
11321;BMP180;5715;48.234;14.320;2023-01-15T15:10:40;97855.00;;;14.70
11321;BMP180;5715;48.234;14.320;2023-01-15T15:13:45;97860.00;;;14.70
11321;BMP180;5715;48.234;14.320;2023-01-15T15:16:45;97857.00;;;14.40
11321;BMP180;5715;48.234;14.320;2023-01-15T15:19:41;97866.00;;;14.70
11321;BMP180;5715;48.234;14.320;2023-01-15T15:22:31;97866.00;;;14.80
11321;BMP180;5715;48.234;14.320;2023-01-15T15:25:25;97865.00;;;14.70
11321;BMP180;5715;48.234;14.320;2023-01-15T15:28:13;97873.00;;;14.40
11321;BMP180;5715;48.234;14.320;2023-01-15T15:31:01;97882.00;;;14.20
11321;BMP180;5715;48.234;14.320;2023-01-15T15:33:49;97890.00;;;14.10
11321;BMP180;5715;48.234;14.320;2023-01-15T15:36:37;97894.00;;;14.50
11321;BMP180;5715;48.234;14.320;2023-01-15T15:39:39;97903.00;;;14.00
11321;BMP180;5715;48.234;14.320;2023-01-15T15:42:42;97914.00;;;14.40
11321;BMP180;5715;48.234;14.320;2023-01-15T15:45:55;97918.00;;;14.30
11321;BMP180;5715;48.234;14.320;2023-01-15T15:49:01;97919.00;;;14.20
11321;BMP180;5715;48.234;14.320;2023-01-15T15:51:54;97921.00;;;14.00
11321;BMP180;5715;48.234;14.320;2023-01-15T15:54:42;97933.00;;;14.50
11321;BMP180;5715;48.234;14.320;2023-01-15T15:57:32;97927.00;;;14.20
11321;BMP180;5715;48.234;14.320;2023-01-15T16:00:39;97938.00;;;14.40
11321;BMP180;5715;48.234;14.320;2023-01-15T16:03:31;97948.00;;;14.60
11321;BMP180;5715;48.234;14.320;2023-01-15T16:06:22;97952.00;;;14.40
11321;BMP180;5715;48.234;14.320;2023-01-15T16:09:12;97962.00;;;14.20
11321;BMP180;5715;48.234;14.320;2023-01-15T16:11:59;97963.00;;;13.80
11321;BMP180;5715;48.234;14.320;2023-01-15T16:14:54;97959.00;;;14.00
11321;BMP180;5715;48.234;14.320;2023-01-15T16:17:43;97974.00;;;14.20
11321;BMP180;5715;48.234;14.320;2023-01-15T16:20:32;97984.00;;;13.70
11321;BMP180;5715;48.234;14.320;2023-01-15T16:23:27;97986.00;;;13.80
11321;BMP180;5715;48.234;14.320;2023-01-15T16:26:19;97998.00;;;13.60
11321;BMP180;5715;48.234;14.320;2023-01-15T16:29:23;97996.00;;;13.90
11321;BMP180;5715;48.234;14.320;2023-01-15T16:32:13;97995.00;;;13.40
11321;BMP180;5715;48.234;14.320;2023-01-15T16:35:13;98000.00;;;13.70
11321;BMP180;5715;48.234;14.320;2023-01-15T16:38:03;97997.00;;;13.90
11321;BMP180;5715;48.234;14.320;2023-01-15T16:40:52;97999.00;;;13.60
11321;BMP180;5715;48.234;14.320;2023-01-15T16:43:59;97998.00;;;13.80
11321;BMP180;5715;48.234;14.320;2023-01-15T16:46:57;97990.00;;;13.20
11321;BMP180;5715;48.234;14.320;2023-01-15T16:49:46;97992.00;;;13.10
11321;BMP180;5715;48.234;14.320;2023-01-15T16:52:58;97996.00;;;13.40
11321;BMP180;5715;48.234;14.320;2023-01-15T16:55:48;98005.00;;;13.50
11321;BMP180;5715;48.234;14.320;2023-01-15T16:58:39;98002.00;;;13.30
11321;BMP180;5715;48.234;14.320;2023-01-15T17:04:28;97997.00;;;13.50
11321;BMP180;5715;48.234;14.320;2023-01-15T17:07:26;98009.00;;;13.60
11321;BMP180;5715;48.234;14.320;2023-01-15T17:10:25;98011.00;;;13.90
11321;BMP180;5715;48.234;14.320;2023-01-15T17:13:19;98027.00;;;13.80
11321;BMP180;5715;48.234;14.320;2023-01-15T17:16:20;98024.00;;;13.80
11321;BMP180;5715;48.234;14.320;2023-01-15T17:19:10;98023.00;;;13.00
11321;BMP180;5715;48.234;14.320;2023-01-15T17:21:57;98026.00;;;13.40
11321;BMP180;5715;48.234;14.320;2023-01-15T17:24:48;98028.00;;;13.20
11321;BMP180;5715;48.234;14.320;2023-01-15T17:27:36;98027.00;;;13.30
11321;BMP180;5715;48.234;14.320;2023-01-15T17:30:24;98032.00;;;13.50
11321;BMP180;5715;48.234;14.320;2023-01-15T17:33:18;98032.00;;;13.70
11321;BMP180;5715;48.234;14.320;2023-01-15T17:36:09;98034.00;;;13.50
11321;BMP180;5715;48.234;14.320;2023-01-15T17:38:56;98032.00;;;13.60
11321;BMP180;5715;48.234;14.320;2023-01-15T17:41:44;98037.00;;;13.70
11321;BMP180;5715;48.234;14.320;2023-01-15T17:44:31;98027.00;;;13.40
11321;BMP180;5715;48.234;14.320;2023-01-15T17:47:19;98024.00;;;13.70
11321;BMP180;5715;48.234;14.320;2023-01-15T17:50:07;98012.00;;;13.60
11321;BMP180;5715;48.234;14.320;2023-01-15T17:52:54;98018.00;;;13.80
11321;BMP180;5715;48.234;14.320;2023-01-15T17:55:42;98013.00;;;13.50
11321;BMP180;5715;48.234;14.320;2023-01-15T17:58:48;98033.00;;;13.80
11321;BMP180;5715;48.234;14.320;2023-01-15T18:01:54;98024.00;;;13.80
11321;BMP180;5715;48.234;14.320;2023-01-15T18:05:01;98030.00;;;13.60
11321;BMP180;5715;48.234;14.320;2023-01-15T18:08:09;98039.00;;;13.60
11321;BMP180;5715;48.234;14.320;2023-01-15T18:10:58;98036.00;;;13.60
11321;BMP180;5715;48.234;14.320;2023-01-15T18:13:46;98032.00;;;13.50